National Weather Service Raw Text Product

Displaying AFOS PIL: TAFMCW Received: 2018-01-12 11:32 UTC


464 
FTUS43 KDMX 121132
TAFMCW
TAF
KMCW 121132Z 1212/1312 34013KT P6SM SCT250
     FM121300 33015KT P6SM SKC
     FM122300 34009KT P6SM BKN100=